sensor_id;sensor_type;location;lat;lon;timestamp;pressure;altitude;pressure_sealevel;temperature;humidity
54850;BME280;47660;51.334;12.396;2023-01-31T00:01:30;100331.75;;;6.75;100.00
54850;BME280;47660;51.334;12.396;2023-01-31T00:03:59;100336.09;;;6.95;100.00
54850;BME280;47660;51.334;12.396;2023-01-31T00:06:29;100337.97;;;6.74;100.00
54850;BME280;47660;51.334;12.396;2023-01-31T00:08:56;100335.00;;;6.99;100.00
54850;BME280;47660;51.334;12.396;2023-01-31T00:11:26;100332.16;;;6.85;100.00
54850;BME280;47660;51.334;12.396;2023-01-31T00:13:55;100328.97;;;6.78;100.00
54850;BME280;47660;51.334;12.396;2023-01-31T00:16:22;100350.56;;;7.06;100.00
54850;BME280;47660;51.334;12.396;2023-01-31T00:18:48;100344.25;;;7.08;100.00
54850;BME280;47660;51.334;12.396;2023-01-31T00:21:22;100352.81;;;6.77;100.00
54850;BME280;47660;51.334;12.396;2023-01-31T00:23:49;100364.16;;;6.98;100.00
54850;BME280;47660;51.334;12.396;2023-01-31T00:26:20;100343.13;;;6.77;100.00
54850;BME280;47660;51.334;12.396;2023-01-31T00:28:50;100343.31;;;6.92;100.00
54850;BME280;47660;51.334;12.396;2023-01-31T00:31:16;100350.59;;;6.87;100.00
54850;BME280;47660;51.334;12.396;2023-01-31T00:33:44;100345.91;;;6.74;100.00
54850;BME280;47660;51.334;12.396;2023-01-31T00:36:17;100350.94;;;6.98;100.00
54850;BME280;47660;51.334;12.396;2023-01-31T00:38:43;100350.81;;;6.82;100.00
54850;BME280;47660;51.334;12.396;2023-01-31T00:41:09;100351.03;;;6.77;100.00
54850;BME280;47660;51.334;12.396;2023-01-31T00:43:35;100357.06;;;6.98;100.00
54850;BME280;47660;51.334;12.396;2023-01-31T00:46:01;100353.41;;;7.01;100.00
54850;BME280;47660;51.334;12.396;2023-01-31T00:48:29;100361.38;;;7.19;100.00
54850;BME280;47660;51.334;12.396;2023-01-31T00:50:54;100365.09;;;7.14;100.00
54850;BME280;47660;51.334;12.396;2023-01-31T00:53:20;100376.22;;;7.04;100.00
54850;BME280;47660;51.334;12.396;2023-01-31T00:56:00;100365.53;;;7.42;100.00
54850;BME280;47660;51.334;12.396;2023-01-31T00:58:26;100375.66;;;6.97;100.00
54850;BME280;47660;51.334;12.396;2023-01-31T01:00:52;100372.31;;;6.74;100.00
54850;BME280;47660;51.334;12.396;2023-01-31T01:03:17;100372.38;;;6.92;100.00
54850;BME280;47660;51.334;12.396;2023-01-31T01:05:45;100382.03;;;6.93;100.00
54850;BME280;47660;51.334;12.396;2023-01-31T01:08:10;100385.88;;;6.86;100.00
54850;BME280;47660;51.334;12.396;2023-01-31T01:10:36;100391.66;;;6.94;100.00
54850;BME280;47660;51.334;12.396;2023-01-31T01:13:02;100393.72;;;6.68;100.00
54850;BME280;47660;51.334;12.396;2023-01-31T01:15:30;100404.72;;;6.59;100.00
54850;BME280;47660;51.334;12.396;2023-01-31T01:17:57;100405.00;;;6.91;100.00
54850;BME280;47660;51.334;12.396;2023-01-31T01:20:23;100411.94;;;6.74;100.00
54850;BME280;47660;51.334;12.396;2023-01-31T01:22:48;100409.72;;;6.84;100.00
54850;BME280;47660;51.334;12.396;2023-01-31T01:25:14;100428.16;;;6.66;100.00
54850;BME280;47660;51.334;12.396;2023-01-31T01:27:41;100419.72;;;6.58;100.00
54850;BME280;47660;51.334;12.396;2023-01-31T01:30:07;100416.31;;;6.35;100.00
54850;BME280;47660;51.334;12.396;2023-01-31T01:32:36;100430.84;;;6.46;100.00
54850;BME280;47660;51.334;12.396;2023-01-31T01:35:02;100428.56;;;6.57;100.00
54850;BME280;47660;51.334;12.396;2023-01-31T01:37:30;100430.75;;;6.07;100.00
54850;BME280;47660;51.334;12.396;2023-01-31T01:39:55;100427.84;;;6.14;100.00
54850;BME280;47660;51.334;12.396;2023-01-31T01:42:23;100421.78;;;6.12;100.00
54850;BME280;47660;51.334;12.396;2023-01-31T01:44:54;100416.00;;;6.62;100.00
54850;BME280;47660;51.334;12.396;2023-01-31T01:49:48;100425.97;;;6.56;100.00
54850;BME280;47660;51.334;12.396;2023-01-31T01:52:15;100434.09;;;6.32;100.00
54850;BME280;47660;51.334;12.396;2023-01-31T01:54:49;100438.09;;;6.41;100.00
54850;BME280;47660;51.334;12.396;2023-01-31T01:57:22;100442.47;;;6.61;100.00
54850;BME280;47660;51.334;12.396;2023-01-31T02:03:01;100455.78;;;6.38;100.00
54850;BME280;47660;51.334;12.396;2023-01-31T02:05:52;100440.78;;;6.79;100.00
54850;BME280;47660;51.334;12.396;2023-01-31T02:08:20;100443.22;;;6.83;100.00
54850;BME280;47660;51.334;12.396;2023-01-31T02:13:41;100453.69;;;6.66;100.00
54850;BME280;47660;51.334;12.396;2023-01-31T02:16:07;100449.75;;;6.56;100.00
54850;BME280;47660;51.334;12.396;2023-01-31T02:18:35;100451.13;;;6.83;100.00
54850;BME280;47660;51.334;12.396;2023-01-31T02:32:15;100464.88;;;6.52;100.00
54850;BME280;47660;51.334;12.396;2023-01-31T02:40:00;100475.59;;;6.28;100.00
54850;BME280;47660;51.334;12.396;2023-01-31T02:42:46;100481.56;;;6.52;100.00
54850;BME280;47660;51.334;12.396;2023-01-31T02:51:13;100500.78;;;6.56;100.00
54850;BME280;47660;51.334;12.396;2023-01-31T02:53:47;100498.72;;;6.63;100.00
54850;BME280;47660;51.334;12.396;2023-01-31T03:01:42;100510.63;;;6.52;100.00
54850;BME280;47660;51.334;12.396;2023-01-31T03:04:11;100506.16;;;6.34;100.00
54850;BME280;47660;51.334;12.396;2023-01-31T03:06:45;100516.91;;;6.50;100.00
54850;BME280;47660;51.334;12.396;2023-01-31T03:20:17;100537.66;;;6.78;100.00
54850;BME280;47660;51.334;12.396;2023-01-31T03:22:55;100524.38;;;6.19;100.00
54850;BME280;47660;51.334;12.396;2023-01-31T03:25:24;100533.09;;;6.42;100.00
54850;BME280;47660;51.334;12.396;2023-01-31T03:27:54;100531.56;;;6.57;100.00
54850;BME280;47660;51.334;12.396;2023-01-31T03:31:11;100524.81;;;6.71;100.00
54850;BME280;47660;51.334;12.396;2023-01-31T03:33:25;100532.44;;;6.77;100.00
54850;BME280;47660;51.334;12.396;2023-01-31T03:36:17;100540.06;;;6.64;100.00
54850;BME280;47660;51.334;12.396;2023-01-31T03:42:01;100524.44;;;6.38;100.00
54850;BME280;47660;51.334;12.396;2023-01-31T03:44:39;100523.81;;;6.52;100.00
54850;BME280;47660;51.334;12.396;2023-01-31T03:47:24;100533.81;;;6.25;100.00
54850;BME280;47660;51.334;12.396;2023-01-31T03:49:53;100534.94;;;6.40;100.00
54850;BME280;47660;51.334;12.396;2023-01-31T03:52:34;100529.25;;;6.49;100.00
54850;BME280;47660;51.334;12.396;2023-01-31T03:55:07;100538.81;;;6.31;100.00
54850;BME280;47660;51.334;12.396;2023-01-31T03:57:36;100542.19;;;6.35;100.00
54850;BME280;47660;51.334;12.396;2023-01-31T04:00:08;100535.19;;;6.54;100.00
54850;BME280;47660;51.334;12.396;2023-01-31T04:02:36;100535.59;;;6.45;100.00
54850;BME280;47660;51.334;12.396;2023-01-31T04:05:05;100549.13;;;6.58;100.00
54850;BME280;47660;51.334;12.396;2023-01-31T04:07:32;100539.94;;;6.67;100.00
54850;BME280;47660;51.334;12.396;2023-01-31T04:10:04;100542.91;;;6.38;100.00
54850;BME280;47660;51.334;12.396;2023-01-31T04:12:34;100537.19;;;6.89;100.00
54850;BME280;47660;51.334;12.396;2023-01-31T04:15:04;100543.13;;;6.94;100.00
54850;BME280;47660;51.334;12.396;2023-01-31T04:17:32;100546.25;;;6.83;100.00
54850;BME280;47660;51.334;12.396;2023-01-31T04:20:00;100560.78;;;6.73;100.00
54850;BME280;47660;51.334;12.396;2023-01-31T04:22:26;100555.63;;;6.70;100.00
54850;BME280;47660;51.334;12.396;2023-01-31T04:24:54;100572.31;;;6.08;100.00
54850;BME280;47660;51.334;12.396;2023-01-31T04:27:21;100561.22;;;6.43;100.00
54850;BME280;47660;51.334;12.396;2023-01-31T04:29:47;100566.78;;;6.35;100.00
54850;BME280;47660;51.334;12.396;2023-01-31T04:32:12;100569.84;;;6.26;100.00
54850;BME280;47660;51.334;12.396;2023-01-31T04:34:37;100562.66;;;6.30;100.00
54850;BME280;47660;51.334;12.396;2023-01-31T04:37:03;100563.59;;;6.49;100.00
54850;BME280;47660;51.334;12.396;2023-01-31T04:39:28;100562.06;;;6.23;100.00
54850;BME280;47660;51.334;12.396;2023-01-31T04:41:54;100574.53;;;6.40;100.00
54850;BME280;47660;51.334;12.396;2023-01-31T04:44:19;100548.91;;;6.21;100.00
54850;BME280;47660;51.334;12.396;2023-01-31T04:46:45;100558.63;;;6.21;100.00
54850;BME280;47660;51.334;12.396;2023-01-31T04:49:13;100572.88;;;6.17;100.00
54850;BME280;47660;51.334;12.396;2023-01-31T04:51:41;100562.59;;;6.09;100.00
54850;BME280;47660;51.334;12.396;2023-01-31T04:54:07;100582.50;;;6.18;100.00
54850;BME280;47660;51.334;12.396;2023-01-31T04:56:32;100578.59;;;6.27;100.00
54850;BME280;47660;51.334;12.396;2023-01-31T04:58:58;100573.78;;;6.16;100.00
54850;BME280;47660;51.334;12.396;2023-01-31T05:01:24;100583.28;;;5.75;100.00
54850;BME280;47660;51.334;12.396;2023-01-31T05:03:52;100568.88;;;6.06;100.00
54850;BME280;47660;51.334;12.396;2023-01-31T05:06:17;100570.78;;;6.25;100.00
54850;BME280;47660;51.334;12.396;2023-01-31T05:08:42;100570.72;;;6.04;100.00
54850;BME280;47660;51.334;12.396;2023-01-31T05:11:08;100553.41;;;6.19;100.00
54850;BME280;47660;51.334;12.396;2023-01-31T05:13:35;100563.97;;;6.81;100.00
54850;BME280;47660;51.334;12.396;2023-01-31T05:16:06;100567.78;;;6.53;100.00
54850;BME280;47660;51.334;12.396;2023-01-31T05:18:37;100569.13;;;6.43;100.00
54850;BME280;47660;51.334;12.396;2023-01-31T05:21:04;100559.38;;;6.45;100.00
54850;BME280;47660;51.334;12.396;2023-01-31T05:23:30;100569.31;;;6.18;100.00
54850;BME280;47660;51.334;12.396;2023-01-31T05:25:56;100568.72;;;6.52;100.00
54850;BME280;47660;51.334;12.396;2023-01-31T05:28:23;100563.81;;;6.22;100.00
54850;BME280;47660;51.334;12.396;2023-01-31T05:30:50;100561.00;;;6.48;100.00
54850;BME280;47660;51.334;12.396;2023-01-31T05:33:16;100559.88;;;6.74;100.00
54850;BME280;47660;51.334;12.396;2023-01-31T05:35:46;100569.25;;;6.81;100.00
54850;BME280;47660;51.334;12.396;2023-01-31T05:38:14;100568.72;;;6.32;100.00
54850;BME280;47660;51.334;12.396;2023-01-31T05:40:39;100573.59;;;6.82;100.00
54850;BME280;47660;51.334;12.396;2023-01-31T05:43:04;100570.19;;;6.99;100.00
54850;BME280;47660;51.334;12.396;2023-01-31T05:45:30;100583.06;;;6.67;100.00
54850;BME280;47660;51.334;12.396;2023-01-31T05:47:58;100586.94;;;6.38;100.00
54850;BME280;47660;51.334;12.396;2023-01-31T05:50:24;100582.84;;;6.93;100.00
54850;BME280;47660;51.334;12.396;2023-01-31T05:52:51;100584.78;;;7.08;100.00
54850;BME280;47660;51.334;12.396;2023-01-31T05:55:17;100575.25;;;7.04;100.00
54850;BME280;47660;51.334;12.396;2023-01-31T05:57:43;100583.91;;;6.68;100.00
54850;BME280;47660;51.334;12.396;2023-01-31T06:00:09;100578.75;;;6.23;100.00
54850;BME280;47660;51.334;12.396;2023-01-31T06:02:34;100576.44;;;6.57;100.00
54850;BME280;47660;51.334;12.396;2023-01-31T06:05:00;100585.69;;;6.67;100.00
54850;BME280;47660;51.334;12.396;2023-01-31T06:07:28;100587.66;;;6.42;100.00
54850;BME280;47660;51.334;12.396;2023-01-31T06:09:53;100587.84;;;6.58;100.00
54850;BME280;47660;51.334;12.396;2023-01-31T06:12:21;100579.22;;;6.54;100.00
54850;BME280;47660;51.334;12.396;2023-01-31T06:14:48;100581.72;;;6.36;100.00
54850;BME280;47660;51.334;12.396;2023-01-31T06:17:14;100577.47;;;6.32;100.00
54850;BME280;47660;51.334;12.396;2023-01-31T06:19:40;100581.41;;;6.44;100.00
54850;BME280;47660;51.334;12.396;2023-01-31T06:22:05;100597.97;;;6.68;100.00
54850;BME280;47660;51.334;12.396;2023-01-31T06:24:31;100581.91;;;6.73;100.00
54850;BME280;47660;51.334;12.396;2023-01-31T06:26:56;100595.00;;;6.56;100.00
54850;BME280;47660;51.334;12.396;2023-01-31T06:29:21;100596.06;;;6.93;100.00
54850;BME280;47660;51.334;12.396;2023-01-31T06:31:47;100595.53;;;6.84;100.00
54850;BME280;47660;51.334;12.396;2023-01-31T06:34:12;100586.78;;;6.20;100.00
54850;BME280;47660;51.334;12.396;2023-01-31T06:36:38;100594.72;;;6.62;100.00
54850;BME280;47660;51.334;12.396;2023-01-31T06:39:03;100586.19;;;6.96;100.00
54850;BME280;47660;51.334;12.396;2023-01-31T06:41:29;100587.34;;;6.70;100.00
54850;BME280;47660;51.334;12.396;2023-01-31T06:43:56;100592.81;;;6.45;100.00
54850;BME280;47660;51.334;12.396;2023-01-31T06:46:22;100604.59;;;6.58;100.00
54850;BME280;47660;51.334;12.396;2023-01-31T06:48:47;100607.75;;;6.66;100.00
54850;BME280;47660;51.334;12.396;2023-01-31T06:51:15;100604.72;;;6.55;100.00
54850;BME280;47660;51.334;12.396;2023-01-31T06:53:41;100600.41;;;6.52;100.00
54850;BME280;47660;51.334;12.396;2023-01-31T06:56:08;100604.16;;;6.47;100.00
54850;BME280;47660;51.334;12.396;2023-01-31T06:58:33;100605.69;;;6.52;100.00
54850;BME280;47660;51.334;12.396;2023-01-31T07:01:10;100611.56;;;6.38;100.00
54850;BME280;47660;51.334;12.396;2023-01-31T07:03:36;100613.53;;;6.33;100.00
54850;BME280;47660;51.334;12.396;2023-01-31T07:06:01;100623.38;;;6.50;100.00
54850;BME280;47660;51.334;12.396;2023-01-31T07:08:29;100621.28;;;6.79;100.00
54850;BME280;47660;51.334;12.396;2023-01-31T07:10:55;100626.88;;;6.51;100.00
54850;BME280;47660;51.334;12.396;2023-01-31T07:13:21;100626.03;;;6.71;100.00
54850;BME280;47660;51.334;12.396;2023-01-31T07:15:47;100628.88;;;6.87;100.00
54850;BME280;47660;51.334;12.396;2023-01-31T07:18:12;100632.56;;;6.83;100.00
54850;BME280;47660;51.334;12.396;2023-01-31T07:20:41;100622.56;;;6.71;100.00
54850;BME280;47660;51.334;12.396;2023-01-31T07:23:07;100633.03;;;6.72;100.00
54850;BME280;47660;51.334;12.396;2023-01-31T07:25:33;100622.66;;;6.47;100.00
54850;BME280;47660;51.334;12.396;2023-01-31T07:28:00;100614.53;;;6.31;100.00
54850;BME280;47660;51.334;12.396;2023-01-31T07:30:26;100634.88;;;6.70;100.00
54850;BME280;47660;51.334;12.396;2023-01-31T07:32:51;100616.78;;;6.81;100.00
54850;BME280;47660;51.334;12.396;2023-01-31T07:35:17;100609.66;;;6.83;100.00
54850;BME280;47660;51.334;12.396;2023-01-31T07:37:43;100609.34;;;6.71;100.00
54850;BME280;47660;51.334;12.396;2023-01-31T07:40:11;100603.25;;;6.68;100.00
54850;BME280;47660;51.334;12.396;2023-01-31T07:42:36;100612.63;;;6.76;100.00
54850;BME280;47660;51.334;12.396;2023-01-31T07:45:05;100605.34;;;6.81;100.00
54850;BME280;47660;51.334;12.396;2023-01-31T07:47:30;100593.84;;;7.03;100.00
54850;BME280;47660;51.334;12.396;2023-01-31T07:49:58;100604.63;;;6.98;100.00
54850;BME280;47660;51.334;12.396;2023-01-31T07:52:23;100602.69;;;7.22;100.00
54850;BME280;47660;51.334;12.396;2023-01-31T07:54:58;100596.38;;;6.85;100.00
54850;BME280;47660;51.334;12.396;2023-01-31T07:57:25;100595.53;;;6.84;100.00
54850;BME280;47660;51.334;12.396;2023-01-31T07:59:53;100592.53;;;6.92;100.00
54850;BME280;47660;51.334;12.396;2023-01-31T08:02:21;100593.22;;;7.17;100.00
54850;BME280;47660;51.334;12.396;2023-01-31T08:05:05;100599.69;;;6.69;100.00
54850;BME280;47660;51.334;12.396;2023-01-31T08:07:31;100604.06;;;6.71;100.00
54850;BME280;47660;51.334;12.396;2023-01-31T08:09:56;100595.16;;;7.13;100.00
54850;BME280;47660;51.334;12.396;2023-01-31T08:12:21;100594.19;;;6.95;100.00
54850;BME280;47660;51.334;12.396;2023-01-31T08:14:47;100602.03;;;6.96;100.00
54850;BME280;47660;51.334;12.396;2023-01-31T08:17:12;100593.75;;;7.44;100.00
54850;BME280;47660;51.334;12.396;2023-01-31T08:19:42;100590.44;;;7.39;100.00
54850;BME280;47660;51.334;12.396;2023-01-31T08:22:10;100605.59;;;7.16;100.00
54850;BME280;47660;51.334;12.396;2023-01-31T08:24:35;100596.59;;;6.80;100.00
54850;BME280;47660;51.334;12.396;2023-01-31T08:27:01;100586.41;;;6.92;100.00
54850;BME280;47660;51.334;12.396;2023-01-31T08:29:26;100593.47;;;6.91;100.00
54850;BME280;47660;51.334;12.396;2023-01-31T08:31:55;100585.94;;;6.82;100.00
54850;BME280;47660;51.334;12.396;2023-01-31T08:34:20;100593.94;;;6.60;100.00
54850;BME280;47660;51.334;12.396;2023-01-31T08:36:49;100586.09;;;6.58;100.00
54850;BME280;47660;51.334;12.396;2023-01-31T08:39:15;100583.63;;;6.95;100.00
54850;BME280;47660;51.334;12.396;2023-01-31T08:41:40;100583.25;;;6.63;100.00
54850;BME280;47660;51.334;12.396;2023-01-31T08:44:06;100568.22;;;6.84;100.00
54850;BME280;47660;51.334;12.396;2023-01-31T08:46:35;100566.06;;;6.73;100.00
54850;BME280;47660;51.334;12.396;2023-01-31T08:49:04;100559.19;;;6.90;100.00
54850;BME280;47660;51.334;12.396;2023-01-31T08:51:33;100578.03;;;7.01;100.00
54850;BME280;47660;51.334;12.396;2023-01-31T08:54:01;100560.50;;;7.19;100.00
54850;BME280;47660;51.334;12.396;2023-01-31T08:56:27;100562.34;;;6.98;100.00
54850;BME280;47660;51.334;12.396;2023-01-31T08:58:56;100561.88;;;6.88;100.00
54850;BME280;47660;51.334;12.396;2023-01-31T09:01:24;100562.78;;;6.68;100.00
54850;BME280;47660;51.334;12.396;2023-01-31T09:03:50;100556.66;;;6.67;100.00
54850;BME280;47660;51.334;12.396;2023-01-31T09:06:21;100553.56;;;6.97;100.00
54850;BME280;47660;51.334;12.396;2023-01-31T09:08:50;100558.31;;;6.49;100.00
54850;BME280;47660;51.334;12.396;2023-01-31T09:11:17;100562.63;;;6.71;100.00
54850;BME280;47660;51.334;12.396;2023-01-31T09:13:45;100544.94;;;6.73;100.00
54850;BME280;47660;51.334;12.396;2023-01-31T09:16:12;100544.41;;;7.05;100.00
54850;BME280;47660;51.334;12.396;2023-01-31T09:18:38;100541.78;;;7.24;100.00
54850;BME280;47660;51.334;12.396;2023-01-31T09:21:12;100537.28;;;7.26;100.00
54850;BME280;47660;51.334;12.396;2023-01-31T09:23:41;100534.50;;;7.29;100.00
54850;BME280;47660;51.334;12.396;2023-01-31T09:26:11;100534.53;;;7.66;99.44
54850;BME280;47660;51.334;12.396;2023-01-31T09:28:37;100527.09;;;7.55;98.72
54850;BME280;47660;51.334;12.396;2023-01-31T09:31:10;100527.69;;;7.23;100.00
54850;BME280;47660;51.334;12.396;2023-01-31T09:33:36;100535.78;;;7.39;100.00
54850;BME280;47660;51.334;12.396;2023-01-31T09:36:10;100528.84;;;7.37;100.00
54850;BME280;47660;51.334;12.396;2023-01-31T09:38:39;100533.31;;;7.54;97.91
54850;BME280;47660;51.334;12.396;2023-01-31T09:43:43;100527.97;;;7.55;98.40
54850;BME280;47660;51.334;12.396;2023-01-31T09:46:16;100517.28;;;7.20;99.44
54850;BME280;47660;51.334;12.396;2023-01-31T09:48:45;100521.81;;;7.55;98.06
54850;BME280;47660;51.334;12.396;2023-01-31T09:51:12;100518.19;;;7.75;95.90
54850;BME280;47660;51.334;12.396;2023-01-31T09:53:39;100523.25;;;7.43;97.64
54850;BME280;47660;51.334;12.396;2023-01-31T09:56:14;100513.63;;;7.96;94.67
54850;BME280;47660;51.334;12.396;2023-01-31T09:58:49;100506.06;;;7.88;93.96
54850;BME280;47660;51.334;12.396;2023-01-31T10:01:34;100492.38;;;7.63;95.47
54850;BME280;47660;51.334;12.396;2023-01-31T10:07:00;100501.91;;;7.65;95.45
54850;BME280;47660;51.334;12.396;2023-01-31T10:09:44;100505.16;;;8.07;93.18
54850;BME280;47660;51.334;12.396;2023-01-31T10:12:17;100499.53;;;8.31;92.34
54850;BME280;47660;51.334;12.396;2023-01-31T10:14:48;100514.72;;;7.75;93.21
54850;BME280;47660;51.334;12.396;2023-01-31T10:17:29;100502.06;;;8.16;91.90
54850;BME280;47660;51.334;12.396;2023-01-31T10:22:45;100503.50;;;8.05;91.67
54850;BME280;47660;51.334;12.396;2023-01-31T10:25:41;100500.84;;;7.69;92.62
54850;BME280;47660;51.334;12.396;2023-01-31T10:28:44;100500.09;;;7.48;94.45
54850;BME280;47660;51.334;12.396;2023-01-31T10:31:39;100500.09;;;8.20;90.00
54850;BME280;47660;51.334;12.396;2023-01-31T10:37:13;100494.63;;;8.06;90.59
54850;BME280;47660;51.334;12.396;2023-01-31T10:39:52;100479.06;;;7.99;91.59
54850;BME280;47660;51.334;12.396;2023-01-31T10:42:35;100476.88;;;8.25;90.99
54850;BME280;47660;51.334;12.396;2023-01-31T10:47:36;100451.66;;;8.18;90.85
54850;BME280;47660;51.334;12.396;2023-01-31T10:55:35;100434.16;;;8.49;88.96
54850;BME280;47660;51.334;12.396;2023-01-31T10:58:03;100435.25;;;8.11;92.48
54850;BME280;47660;51.334;12.396;2023-01-31T11:00:31;100420.78;;;8.01;93.16
54850;BME280;47660;51.334;12.396;2023-01-31T11:02:57;100421.44;;;8.22;91.87
54850;BME280;47660;51.334;12.396;2023-01-31T11:05:25;100414.13;;;8.27;92.10
54850;BME280;47660;51.334;12.396;2023-01-31T11:07:56;100412.16;;;8.49;91.27
54850;BME280;47660;51.334;12.396;2023-01-31T11:10:27;100402.84;;;8.57;90.36
54850;BME280;47660;51.334;12.396;2023-01-31T11:13:01;100396.28;;;8.47;89.19
54850;BME280;47660;51.334;12.396;2023-01-31T11:15:35;100379.88;;;8.74;89.73
54850;BME280;47660;51.334;12.396;2023-01-31T11:18:02;100374.22;;;8.64;90.01
54850;BME280;47660;51.334;12.396;2023-01-31T11:20:36;100385.56;;;8.50;91.08
54850;BME280;47660;51.334;12.396;2023-01-31T11:23:15;100380.19;;;8.52;91.15
54850;BME280;47660;51.334;12.396;2023-01-31T11:25:48;100384.94;;;8.11;94.25
54850;BME280;47660;51.334;12.396;2023-01-31T11:28:22;100360.72;;;8.53;92.14
54850;BME280;47660;51.334;12.396;2023-01-31T11:30:51;100375.41;;;8.58;92.70
54850;BME280;47660;51.334;12.396;2023-01-31T11:33:41;100360.44;;;8.24;96.14
54850;BME280;47660;51.334;12.396;2023-01-31T11:36:11;100342.38;;;7.98;98.52
54850;BME280;47660;51.334;12.396;2023-01-31T11:38:37;100333.25;;;8.04;97.68
54850;BME280;47660;51.334;12.396;2023-01-31T11:43:50;100331.13;;;7.77;100.00
54850;BME280;47660;51.334;12.396;2023-01-31T11:46:15;100326.16;;;7.71;100.00
54850;BME280;47660;51.334;12.396;2023-01-31T11:48:42;100318.34;;;7.85;100.00
54850;BME280;47660;51.334;12.396;2023-01-31T11:51:09;100302.59;;;8.00;100.00
54850;BME280;47660;51.334;12.396;2023-01-31T11:53:47;100300.53;;;7.89;100.00
54850;BME280;47660;51.334;12.396;2023-01-31T11:56:23;100298.72;;;7.90;100.00
54850;BME280;47660;51.334;12.396;2023-01-31T11:58:59;100293.63;;;8.02;100.00
54850;BME280;47660;51.334;12.396;2023-01-31T12:01:42;100291.72;;;7.88;100.00
54850;BME280;47660;51.334;12.396;2023-01-31T12:04:15;100269.25;;;7.80;100.00
54850;BME280;47660;51.334;12.396;2023-01-31T12:06:56;100263.81;;;7.83;100.00
54850;BME280;47660;51.334;12.396;2023-01-31T12:09:25;100257.19;;;7.74;100.00
54850;BME280;47660;51.334;12.396;2023-01-31T12:11:55;100261.78;;;7.88;100.00
54850;BME280;47660;51.334;12.396;2023-01-31T12:14:37;100257.00;;;7.95;100.00
54850;BME280;47660;51.334;12.396;2023-01-31T12:17:03;100244.97;;;7.89;100.00
54850;BME280;47660;51.334;12.396;2023-01-31T12:22:31;100235.56;;;7.99;100.00
54850;BME280;47660;51.334;12.396;2023-01-31T12:25:16;100228.22;;;7.88;100.00
54850;BME280;47660;51.334;12.396;2023-01-31T12:27:48;100237.53;;;8.28;100.00
54850;BME280;47660;51.334;12.396;2023-01-31T12:44:47;100207.41;;;8.14;100.00
54850;BME280;47660;51.334;12.396;2023-01-31T12:47:34;100206.66;;;8.12;100.00
54850;BME280;47660;51.334;12.396;2023-01-31T12:55:35;100170.53;;;8.11;100.00
54850;BME280;47660;51.334;12.396;2023-01-31T13:06:09;100166.84;;;8.14;100.00
54850;BME280;47660;51.334;12.396;2023-01-31T13:08:45;100175.78;;;7.79;100.00
54850;BME280;47660;51.334;12.396;2023-01-31T13:11:21;100183.28;;;7.71;100.00
54850;BME280;47660;51.334;12.396;2023-01-31T13:13:55;100186.69;;;7.73;100.00
54850;BME280;47660;51.334;12.396;2023-01-31T13:16:25;100174.13;;;7.94;100.00
54850;BME280;47660;51.334;12.396;2023-01-31T13:18:55;100179.03;;;7.68;100.00
54850;BME280;47660;51.334;12.396;2023-01-31T13:21:28;100173.94;;;8.13;100.00
54850;BME280;47660;51.334;12.396;2023-01-31T13:23:58;100177.38;;;7.50;100.00
54850;BME280;47660;51.334;12.396;2023-01-31T13:26:34;100166.31;;;7.75;100.00
54850;BME280;47660;51.334;12.396;2023-01-31T13:29:08;100161.00;;;7.59;100.00
54850;BME280;47660;51.334;12.396;2023-01-31T13:34:39;100141.06;;;7.85;100.00
54850;BME280;47660;51.334;12.396;2023-01-31T13:37:15;100146.69;;;7.79;100.00
54850;BME280;47660;51.334;12.396;2023-01-31T13:39:48;100143.03;;;7.82;100.00
54850;BME280;47660;51.334;12.396;2023-01-31T13:42:17;100160.69;;;7.81;100.00
54850;BME280;47660;51.334;12.396;2023-01-31T13:44:46;100146.94;;;7.75;100.00
54850;BME280;47660;51.334;12.396;2023-01-31T13:47:20;100151.97;;;7.95;100.00
54850;BME280;47660;51.334;12.396;2023-01-31T13:49:53;100156.69;;;7.90;100.00
54850;BME280;47660;51.334;12.396;2023-01-31T13:52:39;100146.00;;;7.60;100.00
54850;BME280;47660;51.334;12.396;2023-01-31T13:55:19;100153.63;;;7.82;100.00
54850;BME280;47660;51.334;12.396;2023-01-31T13:57:56;100138.94;;;7.92;100.00
54850;BME280;47660;51.334;12.396;2023-01-31T14:00:44;100145.63;;;8.30;100.00
54850;BME280;47660;51.334;12.396;2023-01-31T14:03:17;100129.97;;;7.95;100.00
54850;BME280;47660;51.334;12.396;2023-01-31T14:08:37;100156.91;;;7.53;100.00
54850;BME280;47660;51.334;12.396;2023-01-31T14:16:44;100128.44;;;7.75;100.00
54850;BME280;47660;51.334;12.396;2023-01-31T14:27:36;100120.22;;;7.63;100.00
54850;BME280;47660;51.334;12.396;2023-01-31T14:40:23;100123.03;;;7.44;100.00
54850;BME280;47660;51.334;12.396;2023-01-31T14:54:05;100119.41;;;7.79;100.00
54850;BME280;47660;51.334;12.396;2023-01-31T15:01:50;100134.13;;;7.51;100.00
54850;BME280;47660;51.334;12.396;2023-01-31T15:04:21;100147.16;;;7.38;100.00
54850;BME280;47660;51.334;12.396;2023-01-31T15:06:50;100151.09;;;7.47;100.00
54850;BME280;47660;51.334;12.396;2023-01-31T15:11:52;100157.56;;;7.07;100.00
54850;BME280;47660;51.334;12.396;2023-01-31T15:14:39;100153.97;;;7.26;100.00
54850;BME280;47660;51.334;12.396;2023-01-31T15:17:21;100139.16;;;7.06;100.00
54850;BME280;47660;51.334;12.396;2023-01-31T15:19:52;100148.22;;;7.18;100.00
54850;BME280;47660;51.334;12.396;2023-01-31T15:22:21;100140.34;;;7.50;100.00
54850;BME280;47660;51.334;12.396;2023-01-31T15:24:53;100143.09;;;7.14;100.00
54850;BME280;47660;51.334;12.396;2023-01-31T15:27:31;100141.69;;;7.41;100.00